Time;durP1;ratioP1;P1;durP2;ratioP2;P2;SDS_P1;SDS_P2;PMS_P1;PMS_P2;Temp;Humidity;BMP_temperature;BMP_pressure;BME280_temperature;BME280_humidity;BME280_pressure;Samples;Min_cycle;Max_cycle;Signal;HPM_P1;HPM_P2
2023/09/10 00:01:34;;;;;;;;;;;;;;;18.74;100.00;100455.35;178229;1261;45750;-90
2023/09/10 00:05:37;;;;;;;;;;;;;;;18.58;100.00;100451.25;178464;1259;46327;-91
2023/09/10 00:09:41;;;;;;;;;;;;;;;18.45;100.00;100451.21;178414;1260;45682;-90
2023/09/10 00:13:44;;;;;;;;;;;;;;;18.35;100.00;100447.52;178286;1260;45761;-89
2023/09/10 00:17:48;;;;;;;;;;;;;;;18.32;100.00;100452.27;178114;1263;59385;-90
2023/09/10 00:21:51;;;;;;;;;;;;;;;18.37;100.00;100446.21;178093;1262;45801;-91
2023/09/10 00:25:54;;;;;;;;;;;;;;;18.34;100.00;100446.48;178278;1260;45785;-90
2023/09/10 00:29:58;;;;;;;;;;;;;;;18.24;100.00;100444.20;178324;1263;49678;-90
2023/09/10 00:34:02;;;;;;;;;;;;;;;18.13;100.00;100439.54;178295;1262;45785;-90
2023/09/10 00:38:05;;;;;;;;;;;;;;;18.07;100.00;100439.98;178407;1263;59329;-89
2023/09/10 00:42:09;;;;;;;;;;;;;;;18.04;100.00;100443.92;177706;1264;45892;-89
2023/09/10 00:46:12;;;;;;;;;;;;;;;17.99;100.00;100447.51;177906;1261;45959;-90
2023/09/10 00:50:16;;;;;;;;;;;;;;;17.92;100.00;100447.05;177903;1261;45891;-88
2023/09/10 00:54:21;;;;;;;;;;;;;;;17.90;100.00;100450.95;178045;1264;45895;-90
2023/09/10 00:58:24;;;;;;;;;;;;;;;17.89;100.00;100452.00;177714;1261;58410;-89
2023/09/10 01:02:27;;;;;;;;;;;;;;;17.85;100.00;100449.24;177446;1260;45872;-89
2023/09/10 01:06:31;;;;;;;;;;;;;;;17.85;100.00;100453.64;177843;1261;45590;-89
2023/09/10 01:10:43;;;;;;;;;;;;;;;17.82;100.00;100453.78;177670;1264;45816;-89
2023/09/10 01:15:00;;;;;;;;;;;;;;;17.77;100.00;100452.38;177844;1260;45689;-89
2023/09/10 01:19:26;;;;;;;;;;;;;;;17.71;100.00;100450.93;177623;1263;59418;-89
2023/09/10 01:24:05;;;;;;;;;;;;;;;17.64;100.00;100447.60;177088;1268;44473;-90
2023/09/10 01:28:08;;;;;;;;;;;;;;;17.57;100.00;100442.23;176015;1272;43852;-89
2023/09/10 01:32:23;;;;;;;;;;;;;;;17.51;100.00;100436.54;176028;1275;46309;-89
2023/09/10 01:36:29;;;;;;;;;;;;;;;17.45;100.00;100440.94;175901;1272;45856;-89
2023/09/10 01:40:35;;;;;;;;;;;;;;;17.38;100.00;100438.39;175933;1276;59361;-89
2023/09/10 01:44:41;;;;;;;;;;;;;;;17.33;100.00;100438.31;175863;1274;45873;-89
2023/09/10 01:48:44;;;;;;;;;;;;;;;17.28;100.00;100439.04;176502;1272;45772;-90
2023/09/10 01:52:48;;;;;;;;;;;;;;;17.22;100.00;100439.30;176468;1274;45797;-90
2023/09/10 01:56:51;;;;;;;;;;;;;;;17.15;100.00;100437.41;176550;1276;45950;-90
2023/09/10 02:00:55;;;;;;;;;;;;;;;17.09;100.00;100437.27;177246;1261;60404;-89
2023/09/10 02:04:59;;;;;;;;;;;;;;;17.06;100.00;100436.95;177561;1263;45803;-90
2023/09/10 02:09:03;;;;;;;;;;;;;;;17.02;100.00;100433.96;177561;1264;45879;-88
2023/09/10 02:13:07;;;;;;;;;;;;;;;16.99;100.00;100430.29;177660;1261;45756;-89
2023/09/10 02:17:10;;;;;;;;;;;;;;;16.93;100.00;100436.23;177588;1260;45779;-88
2023/09/10 02:21:13;;;;;;;;;;;;;;;16.91;100.00;100437.27;177666;1261;58718;-89
2023/09/10 02:25:17;;;;;;;;;;;;;;;16.87;100.00;100432.75;177767;1264;47183;-89
2023/09/10 02:29:20;;;;;;;;;;;;;;;16.85;100.00;100437.81;177915;1260;45892;-89
2023/09/10 02:33:40;;;;;;;;;;;;;;;16.80;100.00;100434.62;177761;1260;45760;-89
2023/09/10 02:37:43;;;;;;;;;;;;;;;16.76;100.00;100437.59;177545;1261;45728;-89
2023/09/10 02:41:48;;;;;;;;;;;;;;;16.71;100.00;100436.42;177519;1260;58436;-89
2023/09/10 02:45:51;;;;;;;;;;;;;;;16.66;100.00;100437.81;177909;1261;45779;-89
2023/09/10 02:49:55;;;;;;;;;;;;;;;16.64;100.00;100439.12;177871;1260;45753;-89
2023/09/10 02:53:58;;;;;;;;;;;;;;;16.64;100.00;100437.88;178385;1264;44824;-90
2023/09/10 02:58:02;;;;;;;;;;;;;;;16.66;100.00;100439.50;178123;1260;45766;-89
2023/09/10 03:02:05;;;;;;;;;;;;;;;16.65;100.00;100438.67;177935;1261;58979;-90
2023/09/10 03:06:15;;;;;;;;;;;;;;;16.62;100.00;100435.73;177801;1264;46196;-89
2023/09/10 03:10:18;;;;;;;;;;;;;;;16.59;100.00;100429.61;178222;1261;46336;-90
2023/09/10 03:14:21;;;;;;;;;;;;;;;16.52;100.00;100425.14;178026;1260;45794;-90
2023/09/10 03:18:24;;;;;;;;;;;;;;;16.45;100.00;100421.05;177907;1261;44495;-89
2023/09/10 03:22:27;;;;;;;;;;;;;;;16.44;100.00;100418.70;177554;1261;58017;-89
2023/09/10 03:26:30;;;;;;;;;;;;;;;16.41;100.00;100419.89;177800;1260;44184;-89
2023/09/10 03:30:34;;;;;;;;;;;;;;;16.36;100.00;100418.05;177627;1260;45721;-89
2023/09/10 03:34:38;;;;;;;;;;;;;;;16.32;100.00;100417.39;177767;1260;45764;-89
2023/09/10 03:38:41;;;;;;;;;;;;;;;16.30;100.00;100412.95;177641;1260;45867;-90
2023/09/10 03:42:44;;;;;;;;;;;;;;;16.29;100.00;100415.23;177741;1263;57794;-90
2023/09/10 03:46:48;;;;;;;;;;;;;;;16.26;100.00;100413.50;178323;1260;45873;-90
2023/09/10 03:50:52;;;;;;;;;;;;;;;16.19;100.00;100410.66;177997;1263;45918;-89
2023/09/10 03:54:56;;;;;;;;;;;;;;;16.14;100.00;100410.70;177599;1260;45801;-90
2023/09/10 03:59:00;;;;;;;;;;;;;;;16.07;100.00;100409.89;177981;1261;44428;-89
2023/09/10 04:03:04;;;;;;;;;;;;;;;16.06;100.00;100407.94;178241;1260;58765;-90
2023/09/10 04:07:10;;;;;;;;;;;;;;;16.00;100.00;100406.90;177962;1261;45879;-90
2023/09/10 04:11:13;;;;;;;;;;;;;;;15.93;100.00;100406.33;178457;1260;45858;-91
2023/09/10 04:15:18;;;;;;;;;;;;;;;15.91;100.00;100404.83;178555;1260;45739;-90
2023/09/10 04:19:22;;;;;;;;;;;;;;;15.88;100.00;100408.98;179215;1261;45875;-90
2023/09/10 04:23:25;;;;;;;;;;;;;;;15.83;100.00;100406.77;178631;1260;58343;-90
2023/09/10 04:27:29;;;;;;;;;;;;;;;15.83;100.00;100412.30;178302;1260;45786;-90
2023/09/10 04:31:36;;;;;;;;;;;;;;;15.83;100.00;100409.84;178028;1260;46436;-90
2023/09/10 04:35:47;;;;;;;;;;;;;;;15.82;100.00;100414.02;177758;1261;45861;-89
2023/09/10 04:39:51;;;;;;;;;;;;;;;15.81;100.00;100417.14;178085;1260;46239;-90
2023/09/10 04:43:54;;;;;;;;;;;;;;;15.80;100.00;100422.52;178060;1260;59850;-90
2023/09/10 04:47:57;;;;;;;;;;;;;;;15.89;100.00;100421.23;177891;1260;46228;-90
2023/09/10 04:52:01;;;;;;;;;;;;;;;16.31;100.00;100428.73;178400;1260;45916;-91
2023/09/10 04:56:04;;;;;;;;;;;;;;;16.90;100.00;100428.04;177716;1260;45716;-90
2023/09/10 05:00:09;;;;;;;;;;;;;;;17.32;100.00;100431.09;177969;1260;45860;-91
2023/09/10 05:04:13;;;;;;;;;;;;;;;17.91;100.00;100435.52;177927;1260;60367;-90
2023/09/10 05:08:16;;;;;;;;;;;;;;;18.52;100.00;100440.80;178151;1260;45890;-90
2023/09/10 05:12:20;;;;;;;;;;;;;;;19.20;100.00;100439.50;178261;1260;45789;-90
2023/09/10 05:16:24;;;;;;;;;;;;;;;19.75;100.00;100430.63;178641;1260;44572;-90
2023/09/10 05:20:27;;;;;;;;;;;;;;;20.19;100.00;100430.75;178048;1261;45675;-89
2023/09/10 05:24:30;;;;;;;;;;;;;;;20.63;100.00;100436.82;177887;1260;57828;-90
2023/09/10 05:28:34;;;;;;;;;;;;;;;21.09;99.33;100435.45;178536;1260;45818;-90
2023/09/10 05:32:37;;;;;;;;;;;;;;;21.46;93.57;100433.94;178062;1260;45771;-90
2023/09/10 05:36:41;;;;;;;;;;;;;;;21.81;92.14;100436.72;178314;1260;44529;-90
2023/09/10 05:40:44;;;;;;;;;;;;;;;22.06;90.15;100439.11;178274;1263;45791;-90
2023/09/10 05:44:54;;;;;;;;;;;;;;;22.53;90.70;100443.85;178366;1260;58131;-91
2023/09/10 05:48:58;;;;;;;;;;;;;;;22.94;88.66;100440.48;178366;1261;45943;-90
2023/09/10 05:53:01;;;;;;;;;;;;;;;23.09;84.64;100438.11;178470;1260;45862;-91
2023/09/10 05:57:05;;;;;;;;;;;;;;;23.14;87.14;100435.27;178577;1260;45911;-91
2023/09/10 06:01:09;;;;;;;;;;;;;;;23.53;87.45;100434.46;178650;1260;45804;-91
2023/09/10 06:05:13;;;;;;;;;;;;;;;24.03;82.86;100431.77;179021;1260;59104;-91
2023/09/10 06:09:16;;;;;;;;;;;;;;;24.42;80.37;100432.95;178475;1262;45914;-91
2023/09/10 06:13:19;;;;;;;;;;;;;;;24.62;78.76;100430.91;178753;1260;45875;-91
2023/09/10 06:17:23;;;;;;;;;;;;;;;24.55;76.07;100432.36;178670;1262;46080;-91
2023/09/10 06:21:28;;;;;;;;;;;;;;;24.12;77.27;100432.34;178642;1261;45908;-91
2023/09/10 06:25:34;;;;;;;;;;;;;;;23.87;79.49;100431.37;178632;1260;59264;-90
2023/09/10 06:29:38;;;;;;;;;;;;;;;23.94;79.26;100431.45;178390;1260;44378;-90
2023/09/10 06:33:41;;;;;;;;;;;;;;;24.05;78.57;100431.08;178351;1260;45727;-90
2023/09/10 06:37:47;;;;;;;;;;;;;;;23.96;81.14;100434.55;178503;1260;45885;-89
2023/09/10 06:41:54;;;;;;;;;;;;;;;24.25;81.22;100436.14;179343;1260;45773;-90
2023/09/10 06:45:58;;;;;;;;;;;;;;;24.56;79.80;100434.45;178953;1263;59248;-90
2023/09/10 06:50:02;;;;;;;;;;;;;;;24.73;78.64;100435.69;178761;1262;45795;-90
2023/09/10 06:54:06;;;;;;;;;;;;;;;24.81;78.92;100438.81;179001;1260;45917;-90
2023/09/10 06:58:14;;;;;;;;;;;;;;;24.95;78.45;100437.06;178860;1258;45898;-90
2023/09/10 07:02:34;;;;;;;;;;;;;;;25.15;78.47;100439.20;179233;1263;45414;-91
2023/09/10 07:25:56;;;;;;;;;;;;;;;25.83;75.02;100449.61;178300;1260;45908;-90
2023/09/10 07:30:00;;;;;;;;;;;;;;;25.84;75.61;100443.43;178323;1260;57857;-91
2023/09/10 07:34:04;;;;;;;;;;;;;;;25.93;77.11;100448.23;179454;1260;45529;-91
2023/09/10 07:38:08;;;;;;;;;;;;;;;26.03;76.68;100444.85;179160;1262;45913;-91
2023/09/10 07:42:12;;;;;;;;;;;;;;;26.07;77.01;100442.68;178929;1260;45800;-90
2023/09/10 07:46:15;;;;;;;;;;;;;;;26.33;77.01;100439.99;178881;1261;45843;-91
2023/09/10 07:50:19;;;;;;;;;;;;;;;26.63;76.37;100441.13;178580;1260;59924;-90
2023/09/10 07:54:23;;;;;;;;;;;;;;;26.77;74.50;100435.94;178868;1260;50096;-90
2023/09/10 07:58:26;;;;;;;;;;;;;;;26.81;75.08;100432.25;180322;1260;45757;-90
2023/09/10 08:02:30;;;;;;;;;;;;;;;27.04;75.27;100430.52;178694;1260;45812;-90
2023/09/10 08:06:34;;;;;;;;;;;;;;;27.23;74.96;100429.92;178600;1260;43948;-90
2023/09/10 08:10:38;;;;;;;;;;;;;;;27.42;73.83;100428.05;178822;1262;58060;-90
2023/09/10 08:15:01;;;;;;;;;;;;;;;27.61;74.44;100423.75;180129;1264;45067;-89
2023/09/10 08:19:05;;;;;;;;;;;;;;;27.74;72.13;100427.11;178639;1261;45573;-90
2023/09/10 08:23:09;;;;;;;;;;;;;;;27.78;70.99;100424.98;179024;1261;45704;-89
2023/09/10 08:27:13;;;;;;;;;;;;;;;27.95;71.42;100420.59;179002;1259;44365;-90
2023/09/10 08:31:16;;;;;;;;;;;;;;;28.07;69.19;100420.48;178594;1262;58477;-90
2023/09/10 08:35:21;;;;;;;;;;;;;;;28.15;68.09;100420.82;178412;1262;45789;-90
2023/09/10 08:39:24;;;;;;;;;;;;;;;28.16;67.82;100412.80;178706;1260;46010;-90
2023/09/10 08:43:39;;;;;;;;;;;;;;;28.26;70.54;100413.58;178669;1261;45909;-91
2023/09/10 08:47:43;;;;;;;;;;;;;;;28.33;68.59;100415.77;178783;1260;45803;-91
2023/09/10 08:51:49;;;;;;;;;;;;;;;28.40;67.57;100414.91;178753;1261;58489;-90
2023/09/10 08:55:53;;;;;;;;;;;;;;;28.46;68.16;100414.42;178817;1261;44397;-90
2023/09/10 08:59:58;;;;;;;;;;;;;;;28.55;69.45;100419.33;178873;1262;44609;-90
2023/09/10 09:04:21;;;;;;;;;;;;;;;28.59;65.14;100421.13;179028;1262;45838;-90
2023/09/10 09:08:32;;;;;;;;;;;;;;;28.67;66.51;100415.51;178915;1264;44788;-90
2023/09/10 09:12:38;;;;;;;;;;;;;;;28.76;66.73;100415.86;179359;1260;57939;-87
2023/09/10 09:16:43;;;;;;;;;;;;;;;28.84;66.85;100414.59;179753;1259;45824;-88
2023/09/10 09:20:48;;;;;;;;;;;;;;;28.93;66.30;100412.52;179164;1260;44398;-88
2023/09/10 09:24:52;;;;;;;;;;;;;;;29.06;66.75;100411.92;179344;1260;45824;-89
2023/09/10 09:28:58;;;;;;;;;;;;;;;29.20;65.45;100409.39;179246;1259;45892;-88
2023/09/10 09:33:02;;;;;;;;;;;;;;;29.37;62.08;100403.54;179218;1260;59178;-89
2023/09/10 09:37:05;;;;;;;;;;;;;;;29.49;58.97;100398.87;179555;1262;45855;-89
2023/09/10 09:41:09;;;;;;;;;;;;;;;29.61;59.36;100400.08;179706;1261;45959;-89
2023/09/10 09:45:13;;;;;;;;;;;;;;;29.67;58.65;100397.72;179575;1260;44338;-89
2023/09/10 09:49:16;;;;;;;;;;;;;;;29.81;60.62;100393.86;179410;1260;45064;-88
2023/09/10 09:53:31;;;;;;;;;;;;;;;29.91;59.71;100390.48;179308;1260;57812;-89
2023/09/10 09:57:37;;;;;;;;;;;;;;;30.00;58.97;100390.70;179317;1260;45869;-89
2023/09/10 10:01:41;;;;;;;;;;;;;;;30.00;59.69;100383.77;179979;1260;45846;-89
2023/09/10 10:05:49;;;;;;;;;;;;;;;29.99;59.29;100380.73;179564;1262;43814;-89
2023/09/10 10:09:53;;;;;;;;;;;;;;;30.05;58.69;100380.29;179198;1262;43898;-89
2023/09/10 10:13:59;;;;;;;;;;;;;;;30.14;59.38;100375.96;179421;1260;57032;-89
2023/09/10 10:18:03;;;;;;;;;;;;;;;30.26;59.26;100374.96;179825;1264;44288;-87
2023/09/10 10:22:08;;;;;;;;;;;;;;;30.29;56.18;100371.77;179635;1260;48772;-88
2023/09/10 10:26:14;;;;;;;;;;;;;;;30.38;57.55;100372.64;179816;1262;45898;-88
2023/09/10 10:30:18;;;;;;;;;;;;;;;30.47;55.96;100367.95;180239;1261;43712;-88
2023/09/10 10:34:23;;;;;;;;;;;;;;;30.54;55.91;100368.16;180038;1263;58508;-88
2023/09/10 10:38:32;;;;;;;;;;;;;;;30.60;56.83;100360.05;180240;1260;44353;-89
2023/09/10 10:42:56;;;;;;;;;;;;;;;30.67;55.74;100361.45;180209;1259;44040;-89
2023/09/10 10:47:05;;;;;;;;;;;;;;;30.73;55.95;100354.81;179886;1260;43724;-88
2023/09/10 10:51:10;;;;;;;;;;;;;;;30.85;55.43;100354.11;179896;1260;43700;-89
2023/09/10 10:55:17;;;;;;;;;;;;;;;30.88;50.19;100346.73;179277;1259;384738;-89
2023/09/10 10:59:21;;;;;;;;;;;;;;;30.99;53.44;100346.27;179495;1261;44491;-89
2023/09/10 11:03:25;;;;;;;;;;;;;;;31.10;53.73;100342.35;179666;1259;44377;-89
2023/09/10 11:07:31;;;;;;;;;;;;;;;31.10;50.07;100341.25;179588;1260;44632;-90
2023/09/10 11:11:36;;;;;;;;;;;;;;;31.08;50.00;100339.52;179504;1264;45773;-89
2023/09/10 11:15:59;;;;;;;;;;;;;;;31.01;48.49;100344.85;179660;1262;58258;-89
2023/09/10 11:20:04;;;;;;;;;;;;;;;31.04;51.33;100341.41;179601;1260;44484;-89
2023/09/10 11:24:08;;;;;;;;;;;;;;;31.08;49.89;100338.81;179609;1260;45850;-89
2023/09/10 11:28:41;;;;;;;;;;;;;;;31.02;48.76;100337.05;179692;1260;43693;-89
2023/09/10 11:41:54;;;;;;;;;;;;;;;31.28;49.25;100332.02;178503;1262;43745;-60
2023/09/10 11:46:24;;;;;;;;;;;;;;;31.31;50.38;100333.09;180309;1262;44711;-60
2023/09/10 11:50:28;;;;;;;;;;;;;;;31.36;47.82;100322.89;180144;1266;45746;-64
2023/09/10 11:54:41;;;;;;;;;;;;;;;31.42;47.97;100324.14;180117;1262;45765;-63
2023/09/10 11:58:48;;;;;;;;;;;;;;;31.51;48.19;100322.11;180243;1262;59988;-64
2023/09/10 12:02:51;;;;;;;;;;;;;;;31.57;47.49;100320.73;180253;1263;43420;-64
2023/09/10 12:06:56;;;;;;;;;;;;;;;31.54;49.26;100317.40;180208;1264;43651;-64
2023/09/10 12:11:03;;;;;;;;;;;;;;;31.50;50.92;100317.98;180206;1262;43521;-63
2023/09/10 12:15:07;;;;;;;;;;;;;;;31.52;50.69;100309.48;180244;1262;45659;-63
2023/09/10 12:19:11;;;;;;;;;;;;;;;31.59;51.08;100302.36;180242;1262;57731;-64
2023/09/10 12:23:14;;;;;;;;;;;;;;;31.53;50.45;100302.45;180140;1262;45842;-64
2023/09/10 12:27:20;;;;;;;;;;;;;;;31.60;51.25;100298.35;180403;1261;43431;-63
2023/09/10 12:31:23;;;;;;;;;;;;;;;31.70;51.48;100292.48;180517;1262;45675;-63
2023/09/10 12:35:30;;;;;;;;;;;;;;;31.68;50.26;100289.50;180331;1262;43721;-63
2023/09/10 12:39:34;;;;;;;;;;;;;;;31.77;49.84;100287.29;180301;1262;58629;-64
2023/09/10 12:43:45;;;;;;;;;;;;;;;31.88;50.77;100283.95;180263;1263;43424;-64
2023/09/10 12:47:48;;;;;;;;;;;;;;;31.94;49.79;100277.98;180234;1263;43329;-64
2023/09/10 12:51:53;;;;;;;;;;;;;;;32.00;49.25;100278.38;180080;1262;45807;-63
2023/09/10 12:55:59;;;;;;;;;;;;;;;32.07;49.11;100274.11;180259;1264;45812;-64
2023/09/10 13:00:05;;;;;;;;;;;;;;;32.11;49.89;100279.67;180224;1262;59358;-64
2023/09/10 13:04:08;;;;;;;;;;;;;;;32.14;48.04;100279.41;180246;1264;45901;-64
2023/09/10 13:08:11;;;;;;;;;;;;;;;32.22;48.05;100281.46;180279;1265;43418;-64
2023/09/10 13:12:15;;;;;;;;;;;;;;;32.30;48.26;100279.34;180157;1264;45727;-64
2023/09/10 13:16:19;;;;;;;;;;;;;;;32.36;48.90;100274.83;180250;1262;43448;-64
2023/09/10 13:20:23;;;;;;;;;;;;;;;32.42;48.95;100273.11;180196;1262;58609;-64
2023/09/10 13:24:27;;;;;;;;;;;;;;;32.38;48.64;100272.07;180180;1266;43476;-64
2023/09/10 13:28:31;;;;;;;;;;;;;;;32.39;49.48;100268.05;180141;1262;45742;-65
2023/09/10 13:32:40;;;;;;;;;;;;;;;32.38;48.53;100264.79;180118;1262;44216;-63
2023/09/10 13:36:43;;;;;;;;;;;;;;;32.37;48.28;100264.52;180099;1264;44611;-63
2023/09/10 13:40:47;;;;;;;;;;;;;;;32.39;48.80;100263.09;180107;1262;58671;-63
2023/09/10 13:44:51;;;;;;;;;;;;;;;32.39;49.51;100260.05;180128;1262;45710;-63
2023/09/10 13:48:54;;;;;;;;;;;;;;;32.42;49.00;100265.20;179973;1262;44294;-63
2023/09/10 13:57:49;;;;;;;;;;;;;;;32.49;47.04;100265.25;180202;1259;44661;-65
2023/09/10 14:01:52;;;;;;;;;;;;;;;32.45;47.06;100268.89;180211;1259;57215;-64
2023/09/10 14:05:57;;;;;;;;;;;;;;;32.41;46.81;100266.79;180232;1258;43395;-64
2023/09/10 14:10:29;;;;;;;;;;;;;;;32.41;46.65;100265.30;180198;1259;44739;-65
2023/09/10 14:14:32;;;;;;;;;;;;;;;32.34;47.98;100266.42;180226;1259;44896;-63
2023/09/10 14:18:37;;;;;;;;;;;;;;;32.26;48.35;100260.78;180249;1259;43636;-64
2023/09/10 14:22:41;;;;;;;;;;;;;;;32.19;48.27;100260.10;180193;1263;57279;-64
2023/09/10 14:26:45;;;;;;;;;;;;;;;32.21;47.54;100258.34;180307;1262;45921;-64
2023/09/10 14:30:49;;;;;;;;;;;;;;;32.31;47.58;100255.80;180123;1259;45808;-64
2023/09/10 14:34:52;;;;;;;;;;;;;;;32.34;48.35;100254.59;180178;1259;43294;-64
2023/09/10 14:38:57;;;;;;;;;;;;;;;32.37;48.30;100250.54;180196;1262;45535;-64
2023/09/10 14:43:01;;;;;;;;;;;;;;;32.38;48.48;100255.44;180104;1259;57849;-64
2023/09/10 14:52:10;;;;;;;;;;;;;;;32.39;47.84;100253.45;180127;1260;43291;-63
2023/09/10 14:56:14;;;;;;;;;;;;;;;32.41;47.91;100249.48;180035;1262;43414;-64
2023/09/10 15:00:21;;;;;;;;;;;;;;;32.40;47.92;100251.91;180115;1264;45876;-66
2023/09/10 15:04:25;;;;;;;;;;;;;;;32.38;48.73;100252.08;179931;1260;58311;-64
2023/09/10 15:08:28;;;;;;;;;;;;;;;32.37;48.02;100245.35;180129;1262;45673;-64
2023/09/10 15:12:32;;;;;;;;;;;;;;;32.27;48.17;100244.13;180101;1260;45795;-65
2023/09/10 15:16:36;;;;;;;;;;;;;;;32.20;47.85;100242.27;180109;1261;44709;-64
2023/09/10 15:20:39;;;;;;;;;;;;;;;32.19;48.04;100239.85;180200;1261;43293;-63
2023/09/10 15:24:42;;;;;;;;;;;;;;;32.15;48.20;100235.28;180310;1261;58636;-65
2023/09/10 15:28:48;;;;;;;;;;;;;;;32.11;48.79;100231.59;180208;1260;43676;-65
2023/09/10 15:32:53;;;;;;;;;;;;;;;32.07;48.77;100231.42;180066;1260;45756;-64
2023/09/10 15:37:04;;;;;;;;;;;;;;;32.01;49.15;100230.02;180165;1260;44907;-66
2023/09/10 15:41:09;;;;;;;;;;;;;;;31.99;48.81;100226.45;180127;1261;43597;-66
2023/09/10 15:45:13;;;;;;;;;;;;;;;31.95;48.91;100227.05;180054;1261;59132;-63
2023/09/10 15:49:16;;;;;;;;;;;;;;;31.93;50.19;100224.23;180040;1261;46272;-65
2023/09/10 15:53:20;;;;;;;;;;;;;;;31.88;49.97;100222.85;180140;1262;45693;-65
2023/09/10 15:57:26;;;;;;;;;;;;;;;31.80;49.73;100223.95;180126;1263;45988;-65
2023/09/10 16:01:31;;;;;;;;;;;;;;;31.67;50.48;100217.80;180171;1259;45698;-66
2023/09/10 16:05:35;;;;;;;;;;;;;;;31.49;51.35;100214.59;180118;1259;58999;-65
2023/09/10 16:09:39;;;;;;;;;;;;;;;31.30;52.08;100211.73;181534;1259;43502;-63
2023/09/10 16:13:46;;;;;;;;;;;;;;;31.14;52.39;100206.64;181594;1259;43481;-63
2023/09/10 16:17:49;;;;;;;;;;;;;;;30.98;52.36;100213.52;181640;1259;43299;-62
2023/09/10 16:21:52;;;;;;;;;;;;;;;30.81;52.66;100212.13;181614;1259;43426;-62
2023/09/10 16:25:54;;;;;;;;;;;;;;;30.66;52.87;100212.17;181605;1259;59029;-61
2023/09/10 16:29:57;;;;;;;;;;;;;;;30.51;53.07;100215.16;181639;1260;43152;-61
2023/09/10 16:34:17;;;;;;;;;;;;;;;30.39;53.91;100224.21;181547;1260;43453;-62
2023/09/10 16:38:20;;;;;;;;;;;;;;;30.24;54.89;100230.38;181502;1260;43189;-61
2023/09/10 16:42:45;;;;;;;;;;;;;;;30.08;55.73;100230.70;181526;1262;42804;-61
2023/09/10 16:46:47;;;;;;;;;;;;;;;29.90;56.62;100232.51;181304;1263;57706;-62
2023/09/10 16:50:50;;;;;;;;;;;;;;;29.72;57.41;100231.77;181314;1262;43470;-61
2023/09/10 16:54:58;;;;;;;;;;;;;;;29.52;59.83;100230.73;181380;1263;42823;-61
2023/09/10 16:59:03;;;;;;;;;;;;;;;29.21;62.22;100232.42;181324;1262;43442;-62
2023/09/10 17:03:06;;;;;;;;;;;;;;;28.89;63.32;100238.95;181301;1262;43625;-62
2023/09/10 17:07:17;;;;;;;;;;;;;;;28.62;64.11;100238.81;181313;1262;58015;-61
2023/09/10 17:11:20;;;;;;;;;;;;;;;28.34;64.05;100242.65;181328;1262;43468;-61
2023/09/10 17:15:23;;;;;;;;;;;;;;;28.03;65.56;100240.09;181298;1263;42811;-61
2023/09/10 17:19:25;;;;;;;;;;;;;;;27.73;66.54;100237.95;181242;1263;42909;-61
2023/09/10 17:23:28;;;;;;;;;;;;;;;27.48;67.33;100239.11;181400;1261;42820;-62
2023/09/10 17:27:32;;;;;;;;;;;;;;;27.21;67.94;100237.20;181288;1263;57654;-62
2023/09/10 17:31:35;;;;;;;;;;;;;;;26.96;69.75;100234.64;181256;1263;43424;-62
2023/09/10 17:35:51;;;;;;;;;;;;;;;26.72;70.31;100239.29;181089;1265;43158;-61
2023/09/10 17:39:54;;;;;;;;;;;;;;;26.46;72.68;100243.38;181127;1265;42840;-64
2023/09/10 17:43:58;;;;;;;;;;;;;;;26.23;72.12;100245.60;181124;1266;43554;-65
2023/09/10 17:48:00;;;;;;;;;;;;;;;26.03;72.41;100247.09;181087;1266;58030;-64
2023/09/10 17:52:10;;;;;;;;;;;;;;;25.84;73.20;100254.54;181143;1267;42888;-64
2023/09/10 17:56:13;;;;;;;;;;;;;;;25.65;74.15;100252.50;181095;1266;43283;-64
2023/09/10 18:00:17;;;;;;;;;;;;;;;25.48;74.78;100249.53;181110;1265;43546;-64
2023/09/10 18:04:22;;;;;;;;;;;;;;;25.30;75.51;100250.45;181111;1269;42861;-64
2023/09/10 18:08:25;;;;;;;;;;;;;;;25.10;77.08;100248.75;181156;1266;59281;-64
2023/09/10 18:12:27;;;;;;;;;;;;;;;24.90;76.58;100250.22;181088;1266;43393;-64
2023/09/10 18:16:31;;;;;;;;;;;;;;;24.71;77.11;100252.09;181123;1267;42824;-65
2023/09/10 18:20:33;;;;;;;;;;;;;;;24.54;78.45;100253.30;181164;1265;43745;-65
2023/09/10 18:24:45;;;;;;;;;;;;;;;24.35;79.96;100253.58;181163;1266;43419;-65
2023/09/10 18:28:48;;;;;;;;;;;;;;;24.16;80.73;100254.06;181100;1266;57689;-64
2023/09/10 18:32:53;;;;;;;;;;;;;;;24.00;81.97;100256.41;181076;1266;42926;-63
2023/09/10 18:36:57;;;;;;;;;;;;;;;23.85;81.49;100264.65;181148;1266;42841;-62
2023/09/10 18:41:00;;;;;;;;;;;;;;;23.70;81.87;100270.34;181097;1266;43003;-63
2023/09/10 18:45:04;;;;;;;;;;;;;;;23.56;82.38;100273.43;181115;1265;42767;-63
2023/09/10 18:49:07;;;;;;;;;;;;;;;23.38;82.64;100271.96;181126;1265;57735;-64
2023/09/10 18:53:10;;;;;;;;;;;;;;;23.22;84.24;100275.91;181089;1266;42859;-63
2023/09/10 18:57:15;;;;;;;;;;;;;;;23.09;85.16;100275.79;181054;1267;42836;-64
2023/09/10 19:01:19;;;;;;;;;;;;;;;22.98;87.24;100274.67;181073;1267;43436;-63
2023/09/10 19:05:21;;;;;;;;;;;;;;;22.87;87.92;100274.91;181081;1266;42994;-64
2023/09/10 19:09:25;;;;;;;;;;;;;;;22.73;88.17;100278.06;181100;1266;60715;-63
2023/09/10 19:13:27;;;;;;;;;;;;;;;22.62;89.30;100282.52;181054;1266;43478;-65
2023/09/10 19:17:30;;;;;;;;;;;;;;;22.55;91.05;100284.74;181083;1266;43384;-64
2023/09/10 19:21:34;;;;;;;;;;;;;;;22.50;92.15;100288.20;181045;1267;42961;-64
2023/09/10 19:25:37;;;;;;;;;;;;;;;22.43;92.99;100281.23;181065;1267;43772;-63
2023/09/10 19:29:48;;;;;;;;;;;;;;;22.33;92.31;100278.48;181068;1266;58238;-64
2023/09/10 19:33:51;;;;;;;;;;;;;;;22.23;92.93;100281.70;180995;1266;43516;-64
2023/09/10 19:37:54;;;;;;;;;;;;;;;22.17;93.65;100287.14;181090;1266;42775;-64
2023/09/10 19:41:56;;;;;;;;;;;;;;;22.09;92.19;100288.50;181020;1267;42883;-64
2023/09/10 19:46:10;;;;;;;;;;;;;;;22.04;90.75;100287.02;181065;1267;42823;-63
2023/09/10 19:50:14;;;;;;;;;;;;;;;21.91;89.31;100282.88;181040;1267;57539;-63
2023/09/10 19:54:16;;;;;;;;;;;;;;;21.76;89.61;100281.63;181057;1266;42908;-64
2023/09/10 19:58:20;;;;;;;;;;;;;;;21.58;90.42;100281.16;181127;1267;43417;-64
2023/09/10 20:02:22;;;;;;;;;;;;;;;21.43;93.12;100275.23;181155;1265;43466;-63
2023/09/10 20:06:25;;;;;;;;;;;;;;;21.35;95.22;100275.44;181113;1267;43200;-63
2023/09/10 20:10:28;;;;;;;;;;;;;;;21.35;97.16;100271.70;181120;1267;58136;-63
2023/09/10 20:14:32;;;;;;;;;;;;;;;21.39;97.75;100269.92;181133;1267;43479;-63
2023/09/10 20:18:35;;;;;;;;;;;;;;;21.39;98.57;100271.30;181160;1266;43433;-63
2023/09/10 20:22:37;;;;;;;;;;;;;;;21.34;99.54;100271.47;181093;1267;42869;-62
2023/09/10 20:26:40;;;;;;;;;;;;;;;21.24;100.00;100270.13;181081;1267;42805;-63
2023/09/10 20:30:43;;;;;;;;;;;;;;;21.18;100.00;100271.48;181152;1267;57712;-62
2023/09/10 20:34:46;;;;;;;;;;;;;;;21.14;100.00;100265.63;181115;1267;43474;-62
2023/09/10 20:38:49;;;;;;;;;;;;;;;21.14;100.00;100266.79;181106;1266;42822;-63
2023/09/10 20:43:04;;;;;;;;;;;;;;;21.09;100.00;100264.13;180936;1267;42889;-63
2023/09/10 20:47:07;;;;;;;;;;;;;;;21.04;100.00;100264.96;180837;1270;42813;-62
2023/09/10 20:51:10;;;;;;;;;;;;;;;21.04;100.00;100265.21;180786;1270;57713;-62
2023/09/10 20:55:13;;;;;;;;;;;;;;;21.07;100.00;100265.70;180657;1270;42859;-63
2023/09/10 20:59:16;;;;;;;;;;;;;;;21.10;100.00;100268.75;180855;1270;43432;-62
2023/09/10 21:03:19;;;;;;;;;;;;;;;20.94;100.00;100271.98;180738;1270;43407;-63
2023/09/10 21:07:42;;;;;;;;;;;;;;;20.80;99.51;100268.35;180802;1270;42846;-62
2023/09/10 21:11:45;;;;;;;;;;;;;;;20.67;100.00;100266.45;180809;1270;57217;-64
2023/09/10 21:15:48;;;;;;;;;;;;;;;20.61;100.00;100274.40;180806;1270;42861;-64